sensor_id;sensor_type;location;lat;lon;timestamp;P1;durP1;ratioP1;P2;durP2;ratioP2
58294;SDS011;45705;55.592;37.460;2024-03-23T00:55:40;49.58;;;23.75;;
58294;SDS011;45705;55.592;37.460;2024-03-23T00:58:07;56.05;;;25.33;;
58294;SDS011;45705;55.592;37.460;2024-03-23T01:00:33;56.50;;;26.48;;
58294;SDS011;45705;55.592;37.460;2024-03-23T01:02:59;51.22;;;25.17;;
58294;SDS011;45705;55.592;37.460;2024-03-23T01:05:25;44.30;;;21.85;;
58294;SDS011;45705;55.592;37.460;2024-03-23T01:07:51;54.80;;;26.27;;
58294;SDS011;45705;55.592;37.460;2024-03-23T01:10:16;54.33;;;25.45;;
58294;SDS011;45705;55.592;37.460;2024-03-23T01:12:43;55.55;;;26.48;;
58294;SDS011;45705;55.592;37.460;2024-03-23T01:15:09;49.58;;;24.00;;
58294;SDS011;45705;55.592;37.460;2024-03-23T01:17:35;50.42;;;23.33;;
58294;SDS011;45705;55.592;37.460;2024-03-23T01:20:01;54.90;;;24.48;;
58294;SDS011;45705;55.592;37.460;2024-03-23T01:22:29;56.25;;;25.83;;
58294;SDS011;45705;55.592;37.460;2024-03-23T01:24:55;56.55;;;25.80;;
58294;SDS011;45705;55.592;37.460;2024-03-23T01:27:21;49.35;;;25.05;;
58294;SDS011;45705;55.592;37.460;2024-03-23T01:29:47;62.20;;;26.80;;
58294;SDS011;45705;55.592;37.460;2024-03-23T01:32:13;46.65;;;22.65;;
58294;SDS011;45705;55.592;37.460;2024-03-23T01:34:39;49.85;;;24.73;;
58294;SDS011;45705;55.592;37.460;2024-03-23T01:37:05;55.15;;;24.20;;
58294;SDS011;45705;55.592;37.460;2024-03-23T01:39:30;55.08;;;24.00;;
58294;SDS011;45705;55.592;37.460;2024-03-23T01:41:56;50.38;;;24.42;;
58294;SDS011;45705;55.592;37.460;2024-03-23T01:44:22;50.28;;;24.00;;
58294;SDS011;45705;55.592;37.460;2024-03-23T01:46:48;59.33;;;26.38;;
58294;SDS011;45705;55.592;37.460;2024-03-23T01:49:14;54.00;;;26.38;;
58294;SDS011;45705;55.592;37.460;2024-03-23T01:51:40;55.38;;;26.40;;
58294;SDS011;45705;55.592;37.460;2024-03-23T01:54:06;50.65;;;24.08;;
58294;SDS011;45705;55.592;37.460;2024-03-23T01:56:33;50.50;;;23.50;;
58294;SDS011;45705;55.592;37.460;2024-03-23T01:59:02;54.80;;;25.25;;
58294;SDS011;45705;55.592;37.460;2024-03-23T02:01:29;51.22;;;24.60;;
58294;SDS011;45705;55.592;37.460;2024-03-23T02:03:55;55.10;;;26.63;;
58294;SDS011;45705;55.592;37.460;2024-03-23T02:06:21;51.13;;;24.48;;
58294;SDS011;45705;55.592;37.460;2024-03-23T02:08:47;52.92;;;23.88;;
58294;SDS011;45705;55.592;37.460;2024-03-23T02:11:13;50.28;;;25.67;;
58294;SDS011;45705;55.592;37.460;2024-03-23T02:13:39;53.63;;;26.17;;
58294;SDS011;45705;55.592;37.460;2024-03-23T02:16:05;51.20;;;24.30;;
58294;SDS011;45705;55.592;37.460;2024-03-23T02:18:32;54.38;;;23.20;;
58294;SDS011;45705;55.592;37.460;2024-03-23T02:20:58;54.92;;;25.10;;
58294;SDS011;45705;55.592;37.460;2024-03-23T02:23:24;57.00;;;25.55;;
58294;SDS011;45705;55.592;37.460;2024-03-23T02:25:50;54.63;;;26.90;;
58294;SDS011;45705;55.592;37.460;2024-03-23T02:28:16;51.35;;;25.98;;
58294;SDS011;45705;55.592;37.460;2024-03-23T02:30:42;52.80;;;25.77;;
58294;SDS011;45705;55.592;37.460;2024-03-23T02:33:08;54.75;;;24.45;;
58294;SDS011;45705;55.592;37.460;2024-03-23T02:35:34;52.63;;;24.80;;
58294;SDS011;45705;55.592;37.460;2024-03-23T02:38:00;50.05;;;24.70;;
58294;SDS011;45705;55.592;37.460;2024-03-23T02:40:27;53.47;;;24.85;;
58294;SDS011;45705;55.592;37.460;2024-03-23T02:42:53;50.97;;;24.60;;
58294;SDS011;45705;55.592;37.460;2024-03-23T02:45:19;53.03;;;24.52;;
58294;SDS011;45705;55.592;37.460;2024-03-23T02:47:45;53.15;;;23.85;;
58294;SDS011;45705;55.592;37.460;2024-03-23T02:50:11;48.55;;;21.83;;
58294;SDS011;45705;55.592;37.460;2024-03-23T02:52:37;51.72;;;25.30;;
58294;SDS011;45705;55.592;37.460;2024-03-23T02:55:03;49.33;;;24.58;;
58294;SDS011;45705;55.592;37.460;2024-03-23T02:57:30;52.80;;;24.35;;
58294;SDS011;45705;55.592;37.460;2024-03-23T02:59:56;49.78;;;23.45;;
58294;SDS011;45705;55.592;37.460;2024-03-23T03:02:22;55.08;;;24.90;;
58294;SDS011;45705;55.592;37.460;2024-03-23T03:04:48;48.35;;;23.08;;
58294;SDS011;45705;55.592;37.460;2024-03-23T03:07:32;47.25;;;24.20;;
58294;SDS011;45705;55.592;37.460;2024-03-23T03:09:58;46.15;;;22.27;;
58294;SDS011;45705;55.592;37.460;2024-03-23T03:12:24;48.03;;;23.70;;
58294;SDS011;45705;55.592;37.460;2024-03-23T03:14:49;51.00;;;25.45;;
58294;SDS011;45705;55.592;37.460;2024-03-23T03:17:15;48.53;;;24.42;;
58294;SDS011;45705;55.592;37.460;2024-03-23T03:19:41;46.78;;;24.00;;
58294;SDS011;45705;55.592;37.460;2024-03-23T03:22:07;52.13;;;25.08;;
58294;SDS011;45705;55.592;37.460;2024-03-23T03:24:32;47.47;;;24.23;;
58294;SDS011;45705;55.592;37.460;2024-03-23T03:26:58;49.67;;;22.65;;
58294;SDS011;45705;55.592;37.460;2024-03-23T03:29:24;43.83;;;21.67;;
58294;SDS011;45705;55.592;37.460;2024-03-23T03:31:50;44.33;;;22.35;;
58294;SDS011;45705;55.592;37.460;2024-03-23T03:34:15;48.85;;;25.15;;
58294;SDS011;45705;55.592;37.460;2024-03-23T03:36:41;53.30;;;23.02;;
58294;SDS011;45705;55.592;37.460;2024-03-23T03:39:07;46.33;;;23.23;;
58294;SDS011;45705;55.592;37.460;2024-03-23T03:41:33;43.33;;;23.02;;
58294;SDS011;45705;55.592;37.460;2024-03-23T03:43:58;48.53;;;24.38;;
58294;SDS011;45705;55.592;37.460;2024-03-23T03:46:28;43.58;;;23.98;;
58294;SDS011;45705;55.592;37.460;2024-03-23T03:48:54;43.60;;;23.35;;
58294;SDS011;45705;55.592;37.460;2024-03-23T03:51:20;44.90;;;22.42;;
58294;SDS011;45705;55.592;37.460;2024-03-23T03:53:46;39.58;;;22.48;;
58294;SDS011;45705;55.592;37.460;2024-03-23T03:56:12;46.55;;;22.08;;
58294;SDS011;45705;55.592;37.460;2024-03-23T03:58:38;42.97;;;22.40;;
58294;SDS011;45705;55.592;37.460;2024-03-23T04:01:03;45.15;;;22.55;;
58294;SDS011;45705;55.592;37.460;2024-03-23T04:03:29;41.55;;;23.10;;
58294;SDS011;45705;55.592;37.460;2024-03-23T04:05:55;40.38;;;20.17;;
58294;SDS011;45705;55.592;37.460;2024-03-23T04:08:21;43.35;;;22.77;;
58294;SDS011;45705;55.592;37.460;2024-03-23T04:10:47;41.25;;;20.85;;
58294;SDS011;45705;55.592;37.460;2024-03-23T04:13:13;42.55;;;21.50;;
58294;SDS011;45705;55.592;37.460;2024-03-23T04:15:39;40.55;;;22.23;;
58294;SDS011;45705;55.592;37.460;2024-03-23T04:18:05;42.45;;;20.25;;
58294;SDS011;45705;55.592;37.460;2024-03-23T04:20:32;46.97;;;23.30;;
58294;SDS011;45705;55.592;37.460;2024-03-23T04:23:00;42.33;;;22.15;;
58294;SDS011;45705;55.592;37.460;2024-03-23T04:25:26;43.30;;;22.15;;
58294;SDS011;45705;55.592;37.460;2024-03-23T04:27:52;45.55;;;21.23;;
58294;SDS011;45705;55.592;37.460;2024-03-23T04:30:18;40.78;;;21.02;;
58294;SDS011;45705;55.592;37.460;2024-03-23T04:32:45;42.13;;;20.80;;
58294;SDS011;45705;55.592;37.460;2024-03-23T04:35:10;38.65;;;19.83;;
58294;SDS011;45705;55.592;37.460;2024-03-23T04:37:39;41.75;;;21.23;;
58294;SDS011;45705;55.592;37.460;2024-03-23T04:40:08;42.20;;;22.08;;
58294;SDS011;45705;55.592;37.460;2024-03-23T04:42:35;40.45;;;21.10;;
58294;SDS011;45705;55.592;37.460;2024-03-23T04:45:01;44.72;;;22.35;;
58294;SDS011;45705;55.592;37.460;2024-03-23T04:47:30;40.75;;;21.13;;
58294;SDS011;45705;55.592;37.460;2024-03-23T04:49:56;41.90;;;21.00;;
58294;SDS011;45705;55.592;37.460;2024-03-23T04:52:21;35.95;;;20.35;;
58294;SDS011;45705;55.592;37.460;2024-03-23T04:54:47;40.75;;;21.38;;
58294;SDS011;45705;55.592;37.460;2024-03-23T04:57:13;36.15;;;18.92;;
58294;SDS011;45705;55.592;37.460;2024-03-23T04:59:47;34.53;;;19.42;;
58294;SDS011;45705;55.592;37.460;2024-03-23T05:02:13;40.17;;;20.83;;
58294;SDS011;45705;55.592;37.460;2024-03-23T05:04:41;42.83;;;22.35;;
58294;SDS011;45705;55.592;37.460;2024-03-23T05:07:07;39.90;;;21.52;;
58294;SDS011;45705;55.592;37.460;2024-03-23T05:09:34;39.47;;;21.55;;
58294;SDS011;45705;55.592;37.460;2024-03-23T05:12:00;39.85;;;20.40;;
58294;SDS011;45705;55.592;37.460;2024-03-23T05:14:26;40.10;;;20.45;;
58294;SDS011;45705;55.592;37.460;2024-03-23T05:16:52;40.35;;;20.50;;
58294;SDS011;45705;55.592;37.460;2024-03-23T05:19:18;33.17;;;20.23;;
58294;SDS011;45705;55.592;37.460;2024-03-23T05:21:44;37.42;;;19.00;;
58294;SDS011;45705;55.592;37.460;2024-03-23T05:24:11;37.70;;;20.17;;
58294;SDS011;45705;55.592;37.460;2024-03-23T05:26:38;38.00;;;19.48;;
58294;SDS011;45705;55.592;37.460;2024-03-23T05:29:03;38.80;;;20.60;;
58294;SDS011;45705;55.592;37.460;2024-03-23T05:31:30;43.70;;;21.92;;
58294;SDS011;45705;55.592;37.460;2024-03-23T05:33:56;38.63;;;21.98;;
58294;SDS011;45705;55.592;37.460;2024-03-23T05:36:23;38.42;;;20.88;;
58294;SDS011;45705;55.592;37.460;2024-03-23T05:38:52;43.00;;;21.35;;
58294;SDS011;45705;55.592;37.460;2024-03-23T05:41:17;37.50;;;21.13;;
58294;SDS011;45705;55.592;37.460;2024-03-23T05:43:43;43.72;;;23.35;;
58294;SDS011;45705;55.592;37.460;2024-03-23T05:46:09;41.50;;;21.70;;
58294;SDS011;45705;55.592;37.460;2024-03-23T05:48:38;39.58;;;22.23;;
58294;SDS011;45705;55.592;37.460;2024-03-23T05:51:03;36.28;;;20.60;;
58294;SDS011;45705;55.592;37.460;2024-03-23T05:53:29;38.60;;;21.10;;
58294;SDS011;45705;55.592;37.460;2024-03-23T05:56:02;39.20;;;22.65;;
58294;SDS011;45705;55.592;37.460;2024-03-23T05:58:32;41.17;;;22.23;;
58294;SDS011;45705;55.592;37.460;2024-03-23T06:00:59;36.38;;;20.63;;
58294;SDS011;45705;55.592;37.460;2024-03-23T06:03:27;38.35;;;20.60;;
58294;SDS011;45705;55.592;37.460;2024-03-23T06:05:54;37.85;;;21.25;;
58294;SDS011;45705;55.592;37.460;2024-03-23T06:08:20;36.55;;;20.88;;
58294;SDS011;45705;55.592;37.460;2024-03-23T06:10:47;37.47;;;20.05;;
58294;SDS011;45705;55.592;37.460;2024-03-23T06:13:13;32.90;;;19.67;;
58294;SDS011;45705;55.592;37.460;2024-03-23T06:15:39;35.90;;;20.88;;
58294;SDS011;45705;55.592;37.460;2024-03-23T06:18:05;29.83;;;16.55;;
58294;SDS011;45705;55.592;37.460;2024-03-23T06:20:33;35.85;;;18.45;;
58294;SDS011;45705;55.592;37.460;2024-03-23T06:23:02;37.97;;;20.85;;
58294;SDS011;45705;55.592;37.460;2024-03-23T06:25:29;34.53;;;20.20;;
58294;SDS011;45705;55.592;37.460;2024-03-23T06:27:55;34.38;;;20.27;;
58294;SDS011;45705;55.592;37.460;2024-03-23T06:30:21;33.70;;;17.70;;
58294;SDS011;45705;55.592;37.460;2024-03-23T06:32:47;32.25;;;19.45;;
58294;SDS011;45705;55.592;37.460;2024-03-23T06:35:12;35.55;;;20.15;;
58294;SDS011;45705;55.592;37.460;2024-03-23T06:37:39;31.67;;;18.75;;
58294;SDS011;45705;55.592;37.460;2024-03-23T06:40:06;32.42;;;19.23;;
58294;SDS011;45705;55.592;37.460;2024-03-23T06:42:35;33.17;;;18.55;;
58294;SDS011;45705;55.592;37.460;2024-03-23T06:45:02;30.27;;;18.88;;
58294;SDS011;45705;55.592;37.460;2024-03-23T06:47:32;30.38;;;18.15;;
58294;SDS011;45705;55.592;37.460;2024-03-23T06:49:59;31.33;;;17.98;;
58294;SDS011;45705;55.592;37.460;2024-03-23T06:52:32;29.70;;;16.90;;
58294;SDS011;45705;55.592;37.460;2024-03-23T06:54:57;27.30;;;17.02;;
58294;SDS011;45705;55.592;37.460;2024-03-23T06:57:23;29.55;;;17.58;;
58294;SDS011;45705;55.592;37.460;2024-03-23T06:59:49;30.83;;;18.83;;
58294;SDS011;45705;55.592;37.460;2024-03-23T07:02:15;32.83;;;19.10;;
58294;SDS011;45705;55.592;37.460;2024-03-23T07:04:41;28.75;;;18.38;;
58294;SDS011;45705;55.592;37.460;2024-03-23T07:07:07;30.77;;;18.67;;
58294;SDS011;45705;55.592;37.460;2024-03-23T07:09:33;28.98;;;17.52;;
58294;SDS011;45705;55.592;37.460;2024-03-23T07:11:59;29.88;;;17.48;;
58294;SDS011;45705;55.592;37.460;2024-03-23T07:14:25;28.73;;;17.42;;
58294;SDS011;45705;55.592;37.460;2024-03-23T07:16:51;28.52;;;17.42;;
58294;SDS011;45705;55.592;37.460;2024-03-23T07:19:17;27.60;;;15.55;;
58294;SDS011;45705;55.592;37.460;2024-03-23T07:21:43;28.15;;;17.92;;
58294;SDS011;45705;55.592;37.460;2024-03-23T07:24:10;28.08;;;17.50;;
58294;SDS011;45705;55.592;37.460;2024-03-23T07:26:36;30.75;;;17.67;;
58294;SDS011;45705;55.592;37.460;2024-03-23T07:29:04;29.85;;;17.63;;
58294;SDS011;45705;55.592;37.460;2024-03-23T07:31:31;28.45;;;17.42;;
58294;SDS011;45705;55.592;37.460;2024-03-23T07:33:56;28.65;;;17.75;;
58294;SDS011;45705;55.592;37.460;2024-03-23T07:36:22;31.15;;;17.25;;
58294;SDS011;45705;55.592;37.460;2024-03-23T07:38:48;28.45;;;16.92;;
58294;SDS011;45705;55.592;37.460;2024-03-23T07:41:17;27.20;;;17.52;;
58294;SDS011;45705;55.592;37.460;2024-03-23T07:43:44;30.80;;;17.48;;
58294;SDS011;45705;55.592;37.460;2024-03-23T07:46:11;30.73;;;17.63;;
58294;SDS011;45705;55.592;37.460;2024-03-23T07:48:37;30.35;;;17.58;;
58294;SDS011;45705;55.592;37.460;2024-03-23T07:51:05;29.08;;;17.88;;
58294;SDS011;45705;55.592;37.460;2024-03-23T07:53:33;27.70;;;16.67;;
58294;SDS011;45705;55.592;37.460;2024-03-23T07:56:06;28.80;;;17.30;;
58294;SDS011;45705;55.592;37.460;2024-03-23T07:58:33;27.02;;;16.65;;
58294;SDS011;45705;55.592;37.460;2024-03-23T08:01:13;26.35;;;16.73;;
58294;SDS011;45705;55.592;37.460;2024-03-23T08:03:41;30.05;;;17.45;;
58294;SDS011;45705;55.592;37.460;2024-03-23T08:08:35;24.65;;;16.40;;
58294;SDS011;45705;55.592;37.460;2024-03-23T08:11:03;25.33;;;16.67;;
58294;SDS011;45705;55.592;37.460;2024-03-23T08:13:29;33.08;;;17.65;;
58294;SDS011;45705;55.592;37.460;2024-03-23T08:15:56;27.02;;;17.42;;
58294;SDS011;45705;55.592;37.460;2024-03-23T08:18:23;27.05;;;17.50;;
58294;SDS011;45705;55.592;37.460;2024-03-23T08:20:58;28.55;;;17.35;;
58294;SDS011;45705;55.592;37.460;2024-03-23T08:23:41;27.35;;;16.25;;
58294;SDS011;45705;55.592;37.460;2024-03-23T08:26:07;26.40;;;15.68;;
58294;SDS011;45705;55.592;37.460;2024-03-23T08:28:34;31.95;;;16.48;;
58294;SDS011;45705;55.592;37.460;2024-03-23T08:31:01;25.85;;;15.80;;
58294;SDS011;45705;55.592;37.460;2024-03-23T08:33:28;25.88;;;15.50;;
58294;SDS011;45705;55.592;37.460;2024-03-23T08:35:55;27.75;;;16.02;;
58294;SDS011;45705;55.592;37.460;2024-03-23T08:38:23;22.67;;;14.65;;
58294;SDS011;45705;55.592;37.460;2024-03-23T08:40:59;25.27;;;15.20;;
58294;SDS011;45705;55.592;37.460;2024-03-23T08:43:28;29.63;;;15.37;;
58294;SDS011;45705;55.592;37.460;2024-03-23T08:46:04;22.95;;;13.50;;
58294;SDS011;45705;55.592;37.460;2024-03-23T08:48:34;23.08;;;13.95;;
58294;SDS011;45705;55.592;37.460;2024-03-23T08:53:27;26.80;;;15.18;;
58294;SDS011;45705;55.592;37.460;2024-03-23T08:55:55;36.58;;;14.93;;
58294;SDS011;45705;55.592;37.460;2024-03-23T08:58:21;26.55;;;14.30;;
58294;SDS011;45705;55.592;37.460;2024-03-23T09:00:49;23.88;;;14.23;;
58294;SDS011;45705;55.592;37.460;2024-03-23T09:03:24;42.22;;;14.13;;
58294;SDS011;45705;55.592;37.460;2024-03-23T09:05:51;26.73;;;13.40;;
58294;SDS011;45705;55.592;37.460;2024-03-23T09:08:18;20.65;;;13.70;;
58294;SDS011;45705;55.592;37.460;2024-03-23T09:10:45;22.98;;;13.63;;
58294;SDS011;45705;55.592;37.460;2024-03-23T09:13:11;23.20;;;14.25;;
58294;SDS011;45705;55.592;37.460;2024-03-23T09:15:37;23.17;;;14.02;;
58294;SDS011;45705;55.592;37.460;2024-03-23T09:18:10;19.95;;;13.00;;
58294;SDS011;45705;55.592;37.460;2024-03-23T09:20:37;25.65;;;15.25;;
58294;SDS011;45705;55.592;37.460;2024-03-23T09:23:02;32.58;;;15.90;;
58294;SDS011;45705;55.592;37.460;2024-03-23T09:25:28;22.92;;;14.75;;
58294;SDS011;45705;55.592;37.460;2024-03-23T09:27:54;20.80;;;14.35;;
58294;SDS011;45705;55.592;37.460;2024-03-23T09:30:20;22.00;;;15.82;;
58294;SDS011;45705;55.592;37.460;2024-03-23T09:32:46;23.92;;;16.27;;
58294;SDS011;45705;55.592;37.460;2024-03-23T09:35:11;25.48;;;16.23;;
58294;SDS011;45705;55.592;37.460;2024-03-23T09:37:38;20.60;;;13.57;;
58294;SDS011;45705;55.592;37.460;2024-03-23T09:40:10;23.90;;;14.75;;
58294;SDS011;45705;55.592;37.460;2024-03-23T09:42:37;24.15;;;16.08;;
58294;SDS011;45705;55.592;37.460;2024-03-23T09:45:06;28.55;;;15.15;;
58294;SDS011;45705;55.592;37.460;2024-03-23T09:47:42;21.63;;;13.75;;
58294;SDS011;45705;55.592;37.460;2024-03-23T09:50:09;21.17;;;13.45;;
58294;SDS011;45705;55.592;37.460;2024-03-23T09:52:35;19.27;;;13.32;;
58294;SDS011;45705;55.592;37.460;2024-03-23T09:55:01;20.90;;;14.57;;
58294;SDS011;45705;55.592;37.460;2024-03-23T09:57:28;24.80;;;15.77;;
58294;SDS011;45705;55.592;37.460;2024-03-23T09:59:54;18.50;;;13.32;;
58294;SDS011;45705;55.592;37.460;2024-03-23T10:02:20;20.63;;;14.40;;
58294;SDS011;45705;55.592;37.460;2024-03-23T10:04:46;19.77;;;13.40;;
58294;SDS011;45705;55.592;37.460;2024-03-23T10:09:44;25.27;;;14.60;;
58294;SDS011;45705;55.592;37.460;2024-03-23T10:12:11;21.70;;;14.25;;
58294;SDS011;45705;55.592;37.460;2024-03-23T10:14:39;21.98;;;14.88;;
58294;SDS011;45705;55.592;37.460;2024-03-23T10:17:12;25.60;;;18.48;;
58294;SDS011;45705;55.592;37.460;2024-03-23T10:19:45;26.77;;;17.13;;
58294;SDS011;45705;55.592;37.460;2024-03-23T10:22:14;26.23;;;18.05;;
58294;SDS011;45705;55.592;37.460;2024-03-23T10:24:41;25.10;;;16.42;;
58294;SDS011;45705;55.592;37.460;2024-03-23T10:27:08;25.73;;;18.85;;
58294;SDS011;45705;55.592;37.460;2024-03-23T10:29:33;25.67;;;16.90;;
58294;SDS011;45705;55.592;37.460;2024-03-23T10:32:09;19.80;;;14.10;;
58294;SDS011;45705;55.592;37.460;2024-03-23T10:34:39;22.23;;;14.68;;
58294;SDS011;45705;55.592;37.460;2024-03-23T10:37:05;19.05;;;13.60;;
58294;SDS011;45705;55.592;37.460;2024-03-23T10:39:32;19.92;;;13.60;;
58294;SDS011;45705;55.592;37.460;2024-03-23T10:42:03;20.65;;;14.25;;
58294;SDS011;45705;55.592;37.460;2024-03-23T10:44:36;24.30;;;15.65;;
58294;SDS011;45705;55.592;37.460;2024-03-23T10:47:02;25.50;;;14.43;;
58294;SDS011;45705;55.592;37.460;2024-03-23T10:49:34;24.20;;;15.57;;
58294;SDS011;45705;55.592;37.460;2024-03-23T10:52:04;22.95;;;16.02;;
58294;SDS011;45705;55.592;37.460;2024-03-23T10:54:32;21.80;;;14.45;;
58294;SDS011;45705;55.592;37.460;2024-03-23T10:57:14;23.20;;;15.82;;
58294;SDS011;45705;55.592;37.460;2024-03-23T10:59:44;21.40;;;13.73;;
58294;SDS011;45705;55.592;37.460;2024-03-23T11:02:20;22.05;;;14.50;;
58294;SDS011;45705;55.592;37.460;2024-03-23T11:04:47;21.17;;;14.73;;
58294;SDS011;45705;55.592;37.460;2024-03-23T11:09:57;21.48;;;14.60;;
58294;SDS011;45705;55.592;37.460;2024-03-23T11:17:25;21.80;;;15.05;;
58294;SDS011;45705;55.592;37.460;2024-03-23T11:25:19;23.25;;;14.32;;
58294;SDS011;45705;55.592;37.460;2024-03-23T11:27:47;24.95;;;15.32;;
58294;SDS011;45705;55.592;37.460;2024-03-23T11:32:41;25.75;;;18.08;;
58294;SDS011;45705;55.592;37.460;2024-03-23T11:35:08;29.90;;;19.00;;
58294;SDS011;45705;55.592;37.460;2024-03-23T11:37:38;33.85;;;21.38;;
58294;SDS011;45705;55.592;37.460;2024-03-23T11:40:16;35.78;;;22.58;;
58294;SDS011;45705;55.592;37.460;2024-03-23T11:42:43;36.13;;;23.25;;
58294;SDS011;45705;55.592;37.460;2024-03-23T11:45:09;35.20;;;23.25;;
58294;SDS011;45705;55.592;37.460;2024-03-23T11:47:35;35.25;;;22.42;;
58294;SDS011;45705;55.592;37.460;2024-03-23T11:50:01;31.48;;;20.33;;
58294;SDS011;45705;55.592;37.460;2024-03-23T11:52:27;30.13;;;19.15;;
58294;SDS011;45705;55.592;37.460;2024-03-23T11:55:02;26.67;;;16.98;;
58294;SDS011;45705;55.592;37.460;2024-03-23T11:57:29;28.13;;;17.75;;
58294;SDS011;45705;55.592;37.460;2024-03-23T11:59:55;30.90;;;19.60;;
58294;SDS011;45705;55.592;37.460;2024-03-23T12:02:21;26.83;;;17.42;;
58294;SDS011;45705;55.592;37.460;2024-03-23T12:04:46;26.23;;;16.60;;
58294;SDS011;45705;55.592;37.460;2024-03-23T12:09:39;31.00;;;19.27;;
58294;SDS011;45705;55.592;37.460;2024-03-23T12:12:09;36.50;;;21.98;;
58294;SDS011;45705;55.592;37.460;2024-03-23T12:14:44;31.30;;;19.90;;
58294;SDS011;45705;55.592;37.460;2024-03-23T12:17:12;30.77;;;20.55;;
58294;SDS011;45705;55.592;37.460;2024-03-23T12:19:39;30.10;;;19.75;;
58294;SDS011;45705;55.592;37.460;2024-03-23T12:22:10;35.47;;;19.13;;
58294;SDS011;45705;55.592;37.460;2024-03-23T12:24:36;29.77;;;19.17;;
58294;SDS011;45705;55.592;37.460;2024-03-23T12:27:02;31.13;;;18.98;;
58294;SDS011;45705;55.592;37.460;2024-03-23T12:29:30;32.58;;;19.45;;
58294;SDS011;45705;55.592;37.460;2024-03-23T12:32:01;29.95;;;18.85;;
58294;SDS011;45705;55.592;37.460;2024-03-23T12:34:28;28.58;;;18.08;;
58294;SDS011;45705;55.592;37.460;2024-03-23T12:36:54;29.13;;;18.10;;
58294;SDS011;45705;55.592;37.460;2024-03-23T12:39:20;34.95;;;18.98;;
58294;SDS011;45705;55.592;37.460;2024-03-23T12:41:47;31.83;;;18.05;;
58294;SDS011;45705;55.592;37.460;2024-03-23T12:44:13;36.92;;;20.30;;
58294;SDS011;45705;55.592;37.460;2024-03-23T12:46:43;29.20;;;19.52;;
58294;SDS011;45705;55.592;37.460;2024-03-23T12:51:35;33.42;;;19.33;;
58294;SDS011;45705;55.592;37.460;2024-03-23T12:54:01;34.30;;;20.85;;
58294;SDS011;45705;55.592;37.460;2024-03-23T12:56:27;34.47;;;19.85;;
58294;SDS011;45705;55.592;37.460;2024-03-23T13:01:25;37.33;;;22.45;;
58294;SDS011;45705;55.592;37.460;2024-03-23T13:03:51;34.83;;;21.38;;
58294;SDS011;45705;55.592;37.460;2024-03-23T13:06:18;34.60;;;21.52;;
58294;SDS011;45705;55.592;37.460;2024-03-23T13:08:45;40.33;;;22.27;;
58294;SDS011;45705;55.592;37.460;2024-03-23T13:11:11;33.88;;;21.65;;
58294;SDS011;45705;55.592;37.460;2024-03-23T13:13:38;34.78;;;21.83;;
58294;SDS011;45705;55.592;37.460;2024-03-23T13:16:04;37.08;;;22.58;;
58294;SDS011;45705;55.592;37.460;2024-03-23T13:18:31;37.42;;;21.83;;
58294;SDS011;45705;55.592;37.460;2024-03-23T13:21:00;38.25;;;23.00;;
58294;SDS011;45705;55.592;37.460;2024-03-23T13:23:26;36.90;;;23.17;;
58294;SDS011;45705;55.592;37.460;2024-03-23T13:25:52;36.35;;;22.92;;
58294;SDS011;45705;55.592;37.460;2024-03-23T13:28:22;33.83;;;22.15;;
58294;SDS011;45705;55.592;37.460;2024-03-23T13:33:30;33.22;;;19.52;;
58294;SDS011;45705;55.592;37.460;2024-03-23T13:35:58;31.25;;;18.50;;
58294;SDS011;45705;55.592;37.460;2024-03-23T13:38:25;32.42;;;18.88;;
58294;SDS011;45705;55.592;37.460;2024-03-23T13:43:21;32.10;;;19.15;;
58294;SDS011;45705;55.592;37.460;2024-03-23T13:45:47;29.05;;;16.30;;
58294;SDS011;45705;55.592;37.460;2024-03-23T13:48:15;26.35;;;15.73;;
58294;SDS011;45705;55.592;37.460;2024-03-23T13:50:41;30.80;;;17.38;;
58294;SDS011;45705;55.592;37.460;2024-03-23T13:53:07;29.00;;;19.27;;
58294;SDS011;45705;55.592;37.460;2024-03-23T13:55:34;28.25;;;18.05;;
58294;SDS011;45705;55.592;37.460;2024-03-23T13:58:00;24.38;;;15.57;;
58294;SDS011;45705;55.592;37.460;2024-03-23T14:00:25;25.05;;;16.55;;
58294;SDS011;45705;55.592;37.460;2024-03-23T14:02:51;24.85;;;16.00;;
58294;SDS011;45705;55.592;37.460;2024-03-23T14:05:17;27.33;;;17.48;;
58294;SDS011;45705;55.592;37.460;2024-03-23T14:07:42;30.45;;;16.48;;
58294;SDS011;45705;55.592;37.460;2024-03-23T14:10:08;25.33;;;17.13;;
58294;SDS011;45705;55.592;37.460;2024-03-23T14:12:37;27.17;;;16.42;;
58294;SDS011;45705;55.592;37.460;2024-03-23T14:15:06;26.48;;;15.75;;
58294;SDS011;45705;55.592;37.460;2024-03-23T14:19:58;24.48;;;15.73;;
58294;SDS011;45705;55.592;37.460;2024-03-23T14:22:29;25.63;;;15.77;;
58294;SDS011;45705;55.592;37.460;2024-03-23T14:24:54;28.30;;;16.77;;
58294;SDS011;45705;55.592;37.460;2024-03-23T14:27:20;25.48;;;16.48;;
58294;SDS011;45705;55.592;37.460;2024-03-23T14:29:47;26.73;;;16.50;;
58294;SDS011;45705;55.592;37.460;2024-03-23T14:32:13;25.67;;;16.30;;
58294;SDS011;45705;55.592;37.460;2024-03-23T14:34:40;31.35;;;16.67;;
58294;SDS011;45705;55.592;37.460;2024-03-23T14:37:06;27.25;;;16.48;;
58294;SDS011;45705;55.592;37.460;2024-03-23T14:39:32;25.38;;;17.00;;
58294;SDS011;45705;55.592;37.460;2024-03-23T14:42:02;28.25;;;15.57;;
58294;SDS011;45705;55.592;37.460;2024-03-23T14:44:29;27.88;;;15.68;;
58294;SDS011;45705;55.592;37.460;2024-03-23T14:46:54;29.98;;;16.50;;
58294;SDS011;45705;55.592;37.460;2024-03-23T14:49:23;24.77;;;16.10;;
58294;SDS011;45705;55.592;37.460;2024-03-23T14:51:49;26.58;;;17.42;;
58294;SDS011;45705;55.592;37.460;2024-03-23T14:54:15;24.50;;;16.58;;
58294;SDS011;45705;55.592;37.460;2024-03-23T14:56:41;25.85;;;17.05;;
58294;SDS011;45705;55.592;37.460;2024-03-23T14:59:07;27.20;;;17.35;;
58294;SDS011;45705;55.592;37.460;2024-03-23T15:01:33;29.85;;;17.13;;
58294;SDS011;45705;55.592;37.460;2024-03-23T15:03:59;29.00;;;16.25;;
58294;SDS011;45705;55.592;37.460;2024-03-23T15:06:25;25.60;;;16.08;;
58294;SDS011;45705;55.592;37.460;2024-03-23T15:08:51;26.60;;;16.35;;
58294;SDS011;45705;55.592;37.460;2024-03-23T15:11:17;26.80;;;17.52;;
58294;SDS011;45705;55.592;37.460;2024-03-23T15:13:45;27.52;;;17.80;;
58294;SDS011;45705;55.592;37.460;2024-03-23T15:16:16;30.48;;;19.15;;
58294;SDS011;45705;55.592;37.460;2024-03-23T15:18:45;31.65;;;17.75;;
58294;SDS011;45705;55.592;37.460;2024-03-23T15:21:11;25.58;;;16.88;;
58294;SDS011;45705;55.592;37.460;2024-03-23T15:23:37;24.50;;;16.80;;
58294;SDS011;45705;55.592;37.460;2024-03-23T15:26:03;26.23;;;16.33;;
58294;SDS011;45705;55.592;37.460;2024-03-23T15:28:31;24.15;;;16.55;;
58294;SDS011;45705;55.592;37.460;2024-03-23T15:31:04;27.20;;;16.88;;
58294;SDS011;45705;55.592;37.460;2024-03-23T15:33:31;26.73;;;16.42;;
58294;SDS011;45705;55.592;37.460;2024-03-23T15:35:59;30.77;;;18.30;;
58294;SDS011;45705;55.592;37.460;2024-03-23T15:38:26;29.75;;;16.75;;
58294;SDS011;45705;55.592;37.460;2024-03-23T15:40:52;26.90;;;15.98;;